sensor_id;sensor_type;location;lat;lon;timestamp;pressure;altitude;pressure_sealevel;temperature;humidity
72855;BME280;60991;51.278;22.550;2023-12-22T00:01:23;95648.94;;;5.61;85.80
72855;BME280;60991;51.278;22.550;2023-12-22T00:02:54;95651.56;;;5.61;85.92
72855;BME280;60991;51.278;22.550;2023-12-22T00:04:24;95638.41;;;5.61;85.89
72855;BME280;60991;51.278;22.550;2023-12-22T00:05:54;95647.75;;;5.67;85.80
72855;BME280;60991;51.278;22.550;2023-12-22T00:07:24;95646.19;;;5.66;85.31
72855;BME280;60991;51.278;22.550;2023-12-22T00:08:54;95660.91;;;5.67;85.06
72855;BME280;60991;51.278;22.550;2023-12-22T00:10:25;95652.25;;;5.67;85.24
72855;BME280;60991;51.278;22.550;2023-12-22T00:11:55;95651.47;;;5.66;84.85
72855;BME280;60991;51.278;22.550;2023-12-22T00:13:25;95654.28;;;5.70;84.99
72855;BME280;60991;51.278;22.550;2023-12-22T00:14:55;95649.03;;;5.70;84.73
72855;BME280;60991;51.278;22.550;2023-12-22T00:16:25;95659.53;;;5.70;84.75
72855;BME280;60991;51.278;22.550;2023-12-22T00:17:56;95664.50;;;5.71;84.31
72855;BME280;60991;51.278;22.550;2023-12-22T00:19:26;95658.75;;;5.69;84.81
72855;BME280;60991;51.278;22.550;2023-12-22T00:20:56;95660.81;;;5.72;84.86
72855;BME280;60991;51.278;22.550;2023-12-22T00:22:26;95665.78;;;5.74;84.33
72855;BME280;60991;51.278;22.550;2023-12-22T00:23:56;95648.44;;;5.73;84.20
72855;BME280;60991;51.278;22.550;2023-12-22T00:25:27;95659.53;;;5.70;84.12
72855;BME280;60991;51.278;22.550;2023-12-22T00:26:57;95658.19;;;5.72;84.08
72855;BME280;60991;51.278;22.550;2023-12-22T00:28:27;95656.44;;;5.68;84.34
72855;BME280;60991;51.278;22.550;2023-12-22T00:29:57;95653.78;;;5.68;83.91
72855;BME280;60991;51.278;22.550;2023-12-22T00:31:27;95651.66;;;5.70;84.07
72855;BME280;60991;51.278;22.550;2023-12-22T00:32:58;95661.09;;;5.71;84.21
72855;BME280;60991;51.278;22.550;2023-12-22T00:34:28;95670.06;;;5.70;83.33
72855;BME280;60991;51.278;22.550;2023-12-22T00:35:58;95665.09;;;5.68;83.75
72855;BME280;60991;51.278;22.550;2023-12-22T00:37:28;95665.59;;;5.70;83.76
72855;BME280;60991;51.278;22.550;2023-12-22T00:38:58;95667.34;;;5.75;83.29
72855;BME280;60991;51.278;22.550;2023-12-22T00:40:29;95677.53;;;5.76;82.90
72855;BME280;60991;51.278;22.550;2023-12-22T00:41:59;95674.25;;;5.71;82.92
72855;BME280;60991;51.278;22.550;2023-12-22T00:43:29;95677.47;;;5.68;82.97
72855;BME280;60991;51.278;22.550;2023-12-22T00:44:59;95678.59;;;5.75;82.67
72855;BME280;60991;51.278;22.550;2023-12-22T00:46:29;95684.34;;;5.77;82.50
72855;BME280;60991;51.278;22.550;2023-12-22T00:48:00;95675.81;;;5.72;82.42
72855;BME280;60991;51.278;22.550;2023-12-22T00:49:30;95681.19;;;5.67;82.13
72855;BME280;60991;51.278;22.550;2023-12-22T00:51:00;95671.53;;;5.62;82.15
72855;BME280;60991;51.278;22.550;2023-12-22T00:52:31;95684.09;;;5.65;81.60
72855;BME280;60991;51.278;22.550;2023-12-22T00:54:01;95695.22;;;5.62;82.11
72855;BME280;60991;51.278;22.550;2023-12-22T00:55:31;95703.41;;;5.61;81.61
72855;BME280;60991;51.278;22.550;2023-12-22T00:57:02;95703.69;;;5.59;81.90
72855;BME280;60991;51.278;22.550;2023-12-22T00:58:32;95705.25;;;5.60;81.67
72855;BME280;60991;51.278;22.550;2023-12-22T01:00:02;95709.72;;;5.60;81.95
72855;BME280;60991;51.278;22.550;2023-12-22T01:01:32;95715.91;;;5.55;81.68
72855;BME280;60991;51.278;22.550;2023-12-22T01:03:03;95715.28;;;5.58;81.73
72855;BME280;60991;51.278;22.550;2023-12-22T01:04:33;95715.00;;;5.60;81.33
72855;BME280;60991;51.278;22.550;2023-12-22T01:06:03;95713.63;;;5.62;80.93
72855;BME280;60991;51.278;22.550;2023-12-22T01:07:34;95714.91;;;5.65;81.08
72855;BME280;60991;51.278;22.550;2023-12-22T01:09:04;95713.53;;;5.67;80.94
72855;BME280;60991;51.278;22.550;2023-12-22T01:10:34;95706.81;;;5.61;81.01
72855;BME280;60991;51.278;22.550;2023-12-22T01:12:05;95715.97;;;5.64;81.01
72855;BME280;60991;51.278;22.550;2023-12-22T01:13:35;95713.94;;;5.61;80.54
72855;BME280;60991;51.278;22.550;2023-12-22T01:15:06;95710.81;;;5.58;80.43
72855;BME280;60991;51.278;22.550;2023-12-22T01:16:36;95712.66;;;5.58;81.04
72855;BME280;60991;51.278;22.550;2023-12-22T01:18:06;95712.97;;;5.56;80.39
72855;BME280;60991;51.278;22.550;2023-12-22T01:19:36;95709.66;;;5.51;81.21
72855;BME280;60991;51.278;22.550;2023-12-22T01:21:07;95716.78;;;5.50;81.03
72855;BME280;60991;51.278;22.550;2023-12-22T01:22:37;95713.66;;;5.48;80.28
72855;BME280;60991;51.278;22.550;2023-12-22T01:24:07;95714.03;;;5.42;81.07
72855;BME280;60991;51.278;22.550;2023-12-22T01:25:37;95717.47;;;5.42;81.11
72855;BME280;60991;51.278;22.550;2023-12-22T01:27:08;95716.69;;;5.42;80.69
72855;BME280;60991;51.278;22.550;2023-12-22T01:28:38;95715.41;;;5.39;80.50
72855;BME280;60991;51.278;22.550;2023-12-22T01:30:08;95709.09;;;5.40;80.38
72855;BME280;60991;51.278;22.550;2023-12-22T01:31:38;95705.97;;;5.38;80.71
72855;BME280;60991;51.278;22.550;2023-12-22T01:33:08;95717.59;;;5.37;80.43
72855;BME280;60991;51.278;22.550;2023-12-22T01:34:39;95710.56;;;5.33;80.80
72855;BME280;60991;51.278;22.550;2023-12-22T01:36:09;95717.69;;;5.32;80.73
72855;BME280;60991;51.278;22.550;2023-12-22T01:37:39;95728.69;;;5.34;80.44
72855;BME280;60991;51.278;22.550;2023-12-22T01:39:09;95731.81;;;5.36;80.63
72855;BME280;60991;51.278;22.550;2023-12-22T01:40:39;95727.19;;;5.42;80.70
72855;BME280;60991;51.278;22.550;2023-12-22T01:42:10;95727.97;;;5.42;80.38
72855;BME280;60991;51.278;22.550;2023-12-22T01:43:40;95726.81;;;5.48;80.05
72855;BME280;60991;51.278;22.550;2023-12-22T01:45:10;95723.69;;;5.46;80.26
72855;BME280;60991;51.278;22.550;2023-12-22T01:46:40;95726.53;;;5.50;80.20
72855;BME280;60991;51.278;22.550;2023-12-22T01:48:11;95717.13;;;5.57;79.62
72855;BME280;60991;51.278;22.550;2023-12-22T01:49:41;95720.66;;;5.67;79.86
72855;BME280;60991;51.278;22.550;2023-12-22T01:51:11;95714.69;;;5.61;79.45
72855;BME280;60991;51.278;22.550;2023-12-22T01:52:43;95709.25;;;5.57;79.07
72855;BME280;60991;51.278;22.550;2023-12-22T01:54:14;95712.97;;;5.56;78.35
72855;BME280;60991;51.278;22.550;2023-12-22T01:55:46;95714.22;;;5.59;77.99
72855;BME280;60991;51.278;22.550;2023-12-22T01:57:18;95713.28;;;5.55;78.62
72855;BME280;60991;51.278;22.550;2023-12-22T01:58:50;95712.50;;;5.54;78.68
72855;BME280;60991;51.278;22.550;2023-12-22T02:00:22;95718.81;;;5.53;78.81
72855;BME280;60991;51.278;22.550;2023-12-22T02:01:53;95718.34;;;5.51;78.04
72855;BME280;60991;51.278;22.550;2023-12-22T02:03:23;95726.53;;;5.50;78.04
72855;BME280;60991;51.278;22.550;2023-12-22T02:04:54;95720.00;;;5.47;78.06
72855;BME280;60991;51.278;22.550;2023-12-22T02:06:24;95721.25;;;5.50;78.04
72855;BME280;60991;51.278;22.550;2023-12-22T02:07:55;95725.25;;;5.47;77.64
72855;BME280;60991;51.278;22.550;2023-12-22T02:09:25;95727.31;;;5.50;77.80
72855;BME280;60991;51.278;22.550;2023-12-22T02:10:55;95731.97;;;5.53;77.78
72855;BME280;60991;51.278;22.550;2023-12-22T02:12:25;95723.09;;;5.49;77.45
72855;BME280;60991;51.278;22.550;2023-12-22T02:13:56;95738.31;;;5.52;77.52
72855;BME280;60991;51.278;22.550;2023-12-22T02:15:26;95734.97;;;5.61;76.91
72855;BME280;60991;51.278;22.550;2023-12-22T02:17:12;95729.22;;;5.58;76.58
72855;BME280;60991;51.278;22.550;2023-12-22T02:18:47;95735.09;;;5.55;77.06
72855;BME280;60991;51.278;22.550;2023-12-22T02:20:21;95722.22;;;5.54;76.59
72855;BME280;60991;51.278;22.550;2023-12-22T02:22:05;95725.16;;;5.52;76.71
72855;BME280;60991;51.278;22.550;2023-12-22T02:23:35;95719.91;;;5.52;76.74
72855;BME280;60991;51.278;22.550;2023-12-22T02:25:06;95729.84;;;5.55;76.42
72855;BME280;60991;51.278;22.550;2023-12-22T02:26:41;95734.41;;;5.50;75.90
72855;BME280;60991;51.278;22.550;2023-12-22T02:28:17;95739.56;;;5.55;75.46
72855;BME280;60991;51.278;22.550;2023-12-22T02:29:52;95736.06;;;5.46;75.52
72855;BME280;60991;51.278;22.550;2023-12-22T02:31:37;95734.22;;;5.46;74.59
72855;BME280;60991;51.278;22.550;2023-12-22T02:33:11;95737.34;;;5.48;74.49
72855;BME280;60991;51.278;22.550;2023-12-22T02:34:43;95737.91;;;5.45;74.46
72855;BME280;60991;51.278;22.550;2023-12-22T02:36:16;95746.28;;;5.61;72.69
72855;BME280;60991;51.278;22.550;2023-12-22T02:37:48;95733.03;;;5.52;73.78
72855;BME280;60991;51.278;22.550;2023-12-22T02:39:19;95730.91;;;5.54;73.30
72855;BME280;60991;51.278;22.550;2023-12-22T02:40:50;95731.50;;;5.51;72.70
72855;BME280;60991;51.278;22.550;2023-12-22T02:42:21;95731.59;;;5.46;73.05
72855;BME280;60991;51.278;22.550;2023-12-22T02:43:52;95734.69;;;5.48;73.45
72855;BME280;60991;51.278;22.550;2023-12-22T02:45:23;95738.31;;;5.52;73.08
72855;BME280;60991;51.278;22.550;2023-12-22T02:46:53;95740.16;;;5.52;72.82
72855;BME280;60991;51.278;22.550;2023-12-22T02:48:23;95740.75;;;5.49;72.47
72855;BME280;60991;51.278;22.550;2023-12-22T02:49:53;95740.94;;;5.52;72.25
72855;BME280;60991;51.278;22.550;2023-12-22T02:51:24;95746.00;;;5.49;72.15
72855;BME280;60991;51.278;22.550;2023-12-22T02:52:54;95732.34;;;5.61;71.82
72855;BME280;60991;51.278;22.550;2023-12-22T02:54:24;95739.97;;;5.48;71.68
72855;BME280;60991;51.278;22.550;2023-12-22T02:55:54;95738.13;;;5.49;72.34
72855;BME280;60991;51.278;22.550;2023-12-22T02:57:24;95735.47;;;5.49;72.15
72855;BME280;60991;51.278;22.550;2023-12-22T02:58:55;95738.22;;;5.44;72.17
72855;BME280;60991;51.278;22.550;2023-12-22T03:00:25;95746.50;;;5.51;71.77
72855;BME280;60991;51.278;22.550;2023-12-22T03:01:55;95744.44;;;5.48;71.40
72855;BME280;60991;51.278;22.550;2023-12-22T03:03:25;95736.16;;;5.41;71.63
72855;BME280;60991;51.278;22.550;2023-12-22T03:04:55;95736.66;;;5.43;71.65
72855;BME280;60991;51.278;22.550;2023-12-22T03:06:26;95732.84;;;5.49;71.46
72855;BME280;60991;51.278;22.550;2023-12-22T03:07:56;95743.66;;;5.47;71.20
72855;BME280;60991;51.278;22.550;2023-12-22T03:09:26;95749.13;;;5.51;70.54
72855;BME280;60991;51.278;22.550;2023-12-22T03:10:56;95750.09;;;5.41;71.22
72855;BME280;60991;51.278;22.550;2023-12-22T03:12:26;95754.84;;;5.39;70.58
72855;BME280;60991;51.278;22.550;2023-12-22T03:13:57;95754.75;;;5.44;70.35
72855;BME280;60991;51.278;22.550;2023-12-22T03:15:27;95767.72;;;5.41;70.95
72855;BME280;60991;51.278;22.550;2023-12-22T03:16:57;95770.75;;;5.34;70.78
72855;BME280;60991;51.278;22.550;2023-12-22T03:18:27;95765.09;;;5.27;70.72
72855;BME280;60991;51.278;22.550;2023-12-22T03:19:57;95771.72;;;5.25;71.68
72855;BME280;60991;51.278;22.550;2023-12-22T03:21:27;95766.94;;;5.27;71.23
72855;BME280;60991;51.278;22.550;2023-12-22T03:22:58;95769.94;;;5.20;71.22
72855;BME280;60991;51.278;22.550;2023-12-22T03:24:28;95780.94;;;5.08;71.39
72855;BME280;60991;51.278;22.550;2023-12-22T03:26:03;95776.47;;;5.09;72.12
72855;BME280;60991;51.278;22.550;2023-12-22T03:27:33;95780.75;;;5.05;71.95
72855;BME280;60991;51.278;22.550;2023-12-22T03:29:03;95777.25;;;4.96;71.87
72855;BME280;60991;51.278;22.550;2023-12-22T03:30:33;95776.94;;;4.97;72.11
72855;BME280;60991;51.278;22.550;2023-12-22T03:32:04;95776.94;;;4.97;72.31
72855;BME280;60991;51.278;22.550;2023-12-22T03:33:34;95780.44;;;4.93;72.13
72855;BME280;60991;51.278;22.550;2023-12-22T03:35:04;95776.03;;;4.88;72.25
72855;BME280;60991;51.278;22.550;2023-12-22T03:36:35;95774.09;;;4.80;72.58
72855;BME280;60991;51.278;22.550;2023-12-22T03:38:05;95775.44;;;4.77;72.63
72855;BME280;60991;51.278;22.550;2023-12-22T03:39:35;95773.13;;;4.76;72.92
72855;BME280;60991;51.278;22.550;2023-12-22T03:41:05;95771.97;;;4.82;72.82
72855;BME280;60991;51.278;22.550;2023-12-22T03:42:36;95774.09;;;4.80;72.69
72855;BME280;60991;51.278;22.550;2023-12-22T03:44:06;95784.97;;;4.73;72.90
72855;BME280;60991;51.278;22.550;2023-12-22T03:45:36;95786.31;;;4.71;72.75
72855;BME280;60991;51.278;22.550;2023-12-22T03:47:06;95778.53;;;4.66;72.42
72855;BME280;60991;51.278;22.550;2023-12-22T03:48:36;95783.00;;;4.65;72.57
72855;BME280;60991;51.278;22.550;2023-12-22T03:50:07;95784.38;;;4.63;72.70
72855;BME280;60991;51.278;22.550;2023-12-22T03:51:37;95779.41;;;4.61;72.95
72855;BME280;60991;51.278;22.550;2023-12-22T03:53:07;95771.31;;;4.58;72.98
72855;BME280;60991;51.278;22.550;2023-12-22T03:54:37;95772.66;;;4.55;73.01
72855;BME280;60991;51.278;22.550;2023-12-22T03:56:08;95761.09;;;4.56;72.63
72855;BME280;60991;51.278;22.550;2023-12-22T03:57:39;95762.44;;;4.53;72.58
72855;BME280;60991;51.278;22.550;2023-12-22T03:59:09;95764.72;;;4.60;72.59
72855;BME280;60991;51.278;22.550;2023-12-22T04:00:39;95761.31;;;4.60;71.92
72855;BME280;60991;51.278;22.550;2023-12-22T04:02:09;95768.41;;;4.59;71.76
72855;BME280;60991;51.278;22.550;2023-12-22T04:03:39;95776.00;;;4.61;71.91
72855;BME280;60991;51.278;22.550;2023-12-22T04:05:13;95767.13;;;4.57;71.64
72855;BME280;60991;51.278;22.550;2023-12-22T04:06:43;95768.97;;;4.56;71.55
72855;BME280;60991;51.278;22.550;2023-12-22T04:08:13;95766.34;;;4.56;70.71
72855;BME280;60991;51.278;22.550;2023-12-22T04:09:44;95758.31;;;4.47;70.66
72855;BME280;60991;51.278;22.550;2023-12-22T04:11:14;95768.03;;;4.47;71.48
72855;BME280;60991;51.278;22.550;2023-12-22T04:12:44;95764.84;;;4.50;71.02
72855;BME280;60991;51.278;22.550;2023-12-22T04:14:15;95759.59;;;4.50;71.13
72855;BME280;60991;51.278;22.550;2023-12-22T04:15:45;95771.16;;;4.49;70.71
72855;BME280;60991;51.278;22.550;2023-12-22T04:17:15;95767.88;;;4.43;71.29
72855;BME280;60991;51.278;22.550;2023-12-22T04:18:45;95779.94;;;4.44;70.81
72855;BME280;60991;51.278;22.550;2023-12-22T04:20:15;95785.47;;;4.43;70.98
72855;BME280;60991;51.278;22.550;2023-12-22T04:21:46;95784.41;;;4.44;70.91
72855;BME280;60991;51.278;22.550;2023-12-22T04:23:16;95779.16;;;4.44;70.81
72855;BME280;60991;51.278;22.550;2023-12-22T04:24:46;95786.59;;;4.37;71.09
72855;BME280;60991;51.278;22.550;2023-12-22T04:26:16;95782.34;;;4.41;71.02
72855;BME280;60991;51.278;22.550;2023-12-22T04:27:47;95774.19;;;4.42;70.36
72855;BME280;60991;51.278;22.550;2023-12-22T04:29:17;95779.78;;;4.36;70.50
72855;BME280;60991;51.278;22.550;2023-12-22T04:30:47;95772.69;;;4.36;70.85
72855;BME280;60991;51.278;22.550;2023-12-22T04:32:17;95767.38;;;4.41;70.96
72855;BME280;60991;51.278;22.550;2023-12-22T04:33:47;95769.00;;;4.37;70.98
72855;BME280;60991;51.278;22.550;2023-12-22T04:35:18;95764.25;;;4.39;71.10
72855;BME280;60991;51.278;22.550;2023-12-22T04:36:48;95771.34;;;4.39;70.75
72855;BME280;60991;51.278;22.550;2023-12-22T04:38:18;95771.41;;;4.34;70.87
72855;BME280;60991;51.278;22.550;2023-12-22T04:39:48;95778.72;;;4.37;70.86
72855;BME280;60991;51.278;22.550;2023-12-22T04:41:18;95779.28;;;4.34;71.05
72855;BME280;60991;51.278;22.550;2023-12-22T04:42:49;95784.53;;;4.34;70.95
72855;BME280;60991;51.278;22.550;2023-12-22T04:44:19;95768.00;;;4.33;70.85
72855;BME280;60991;51.278;22.550;2023-12-22T04:45:49;95766.72;;;4.31;70.74
72855;BME280;60991;51.278;22.550;2023-12-22T04:47:19;95767.78;;;4.30;71.06
72855;BME280;60991;51.278;22.550;2023-12-22T04:48:50;95769.91;;;4.28;71.25
72855;BME280;60991;51.278;22.550;2023-12-22T04:50:20;95774.19;;;4.24;71.31
72855;BME280;60991;51.278;22.550;2023-12-22T04:51:50;95768.25;;;4.18;71.07
72855;BME280;60991;51.278;22.550;2023-12-22T04:53:20;95767.97;;;4.20;71.53
72855;BME280;60991;51.278;22.550;2023-12-22T04:54:50;95767.75;;;4.16;71.30
72855;BME280;60991;51.278;22.550;2023-12-22T04:56:21;95767.25;;;4.14;71.31
72855;BME280;60991;51.278;22.550;2023-12-22T04:57:51;95766.69;;;4.17;71.39
72855;BME280;60991;51.278;22.550;2023-12-22T04:59:21;95776.41;;;4.16;71.71
72855;BME280;60991;51.278;22.550;2023-12-22T05:00:51;95760.88;;;4.20;70.64
72855;BME280;60991;51.278;22.550;2023-12-22T05:02:21;95765.41;;;4.14;70.74
72855;BME280;60991;51.278;22.550;2023-12-22T05:03:52;95760.44;;;4.13;70.94
72855;BME280;60991;51.278;22.550;2023-12-22T05:05:22;95756.81;;;4.09;70.71
72855;BME280;60991;51.278;22.550;2023-12-22T05:06:52;95769.47;;;4.07;70.85
72855;BME280;60991;51.278;22.550;2023-12-22T05:08:22;95749.03;;;4.04;71.06
72855;BME280;60991;51.278;22.550;2023-12-22T05:09:52;95754.28;;;4.04;70.98
72855;BME280;60991;51.278;22.550;2023-12-22T05:11:23;95767.97;;;4.01;70.64
72855;BME280;60991;51.278;22.550;2023-12-22T05:12:53;95762.72;;;4.01;70.78
72855;BME280;60991;51.278;22.550;2023-12-22T05:14:23;95761.16;;;4.00;71.02
72855;BME280;60991;51.278;22.550;2023-12-22T05:15:53;95764.28;;;4.02;70.84
72855;BME280;60991;51.278;22.550;2023-12-22T05:17:23;95765.63;;;3.99;70.44
72855;BME280;60991;51.278;22.550;2023-12-22T05:18:54;95768.59;;;3.93;70.93
72855;BME280;60991;51.278;22.550;2023-12-22T05:20:24;95776.75;;;3.91;71.11
72855;BME280;60991;51.278;22.550;2023-12-22T05:21:54;95774.34;;;3.95;70.79
72855;BME280;60991;51.278;22.550;2023-12-22T05:23:24;95775.13;;;3.95;71.10
72855;BME280;60991;51.278;22.550;2023-12-22T05:24:54;95779.31;;;3.96;71.20
72855;BME280;60991;51.278;22.550;2023-12-22T05:26:25;95785.34;;;3.97;70.96
72855;BME280;60991;51.278;22.550;2023-12-22T05:27:55;95770.16;;;3.94;71.55
72855;BME280;60991;51.278;22.550;2023-12-22T05:29:25;95771.22;;;3.93;70.72
72855;BME280;60991;51.278;22.550;2023-12-22T05:30:55;95778.38;;;3.87;71.56
72855;BME280;60991;51.278;22.550;2023-12-22T05:32:25;95780.72;;;3.89;71.11
72855;BME280;60991;51.278;22.550;2023-12-22T05:33:56;95792.56;;;3.86;71.24
72855;BME280;60991;51.278;22.550;2023-12-22T05:35:26;95785.75;;;3.85;71.10
72855;BME280;60991;51.278;22.550;2023-12-22T05:36:56;95802.00;;;3.87;71.39
72855;BME280;60991;51.278;22.550;2023-12-22T05:38:26;95800.66;;;3.90;71.04
72855;BME280;60991;51.278;22.550;2023-12-22T05:39:56;95791.22;;;3.89;70.80
72855;BME280;60991;51.278;22.550;2023-12-22T05:41:27;95799.88;;;3.89;70.92
72855;BME280;60991;51.278;22.550;2023-12-22T05:42:57;95809.59;;;3.89;71.92
72855;BME280;60991;51.278;22.550;2023-12-22T05:44:27;95799.88;;;3.89;71.57
72855;BME280;60991;51.278;22.550;2023-12-22T05:45:57;95800.44;;;3.86;71.16
72855;BME280;60991;51.278;22.550;2023-12-22T05:47:28;95819.78;;;3.90;71.59
72855;BME280;60991;51.278;22.550;2023-12-22T05:48:58;95811.34;;;3.93;71.36
72855;BME280;60991;51.278;22.550;2023-12-22T05:50:28;95812.63;;;3.96;70.50
72855;BME280;60991;51.278;22.550;2023-12-22T05:51:58;95808.72;;;3.93;71.01
72855;BME280;60991;51.278;22.550;2023-12-22T05:53:29;95816.03;;;3.96;70.19
72855;BME280;60991;51.278;22.550;2023-12-22T05:54:59;95832.00;;;4.00;70.35
72855;BME280;60991;51.278;22.550;2023-12-22T05:56:29;95819.66;;;4.00;69.58
72855;BME280;60991;51.278;22.550;2023-12-22T05:57:59;95823.63;;;3.98;69.23
72855;BME280;60991;51.278;22.550;2023-12-22T05:59:30;95817.88;;;3.96;70.32
72855;BME280;60991;51.278;22.550;2023-12-22T06:01:00;95816.03;;;3.96;69.60
72855;BME280;60991;51.278;22.550;2023-12-22T06:02:30;95824.19;;;3.95;69.88
72855;BME280;60991;51.278;22.550;2023-12-22T06:04:00;95825.19;;;3.99;69.74
72855;BME280;60991;51.278;22.550;2023-12-22T06:05:31;95828.53;;;4.04;70.05
72855;BME280;60991;51.278;22.550;2023-12-22T06:07:01;95824.41;;;3.98;69.50
72855;BME280;60991;51.278;22.550;2023-12-22T06:08:31;95821.78;;;3.98;70.01
72855;BME280;60991;51.278;22.550;2023-12-22T06:10:01;95829.38;;;4.00;69.88
72855;BME280;60991;51.278;22.550;2023-12-22T06:11:31;95830.66;;;4.02;70.07
72855;BME280;60991;51.278;22.550;2023-12-22T06:13:02;95828.53;;;4.04;69.88
72855;BME280;60991;51.278;22.550;2023-12-22T06:14:32;95827.03;;;3.98;70.08
72855;BME280;60991;51.278;22.550;2023-12-22T06:16:02;95825.47;;;3.97;70.71
72855;BME280;60991;51.278;22.550;2023-12-22T06:17:33;95835.47;;;3.95;71.27
72855;BME280;60991;51.278;22.550;2023-12-22T06:19:03;95842.06;;;3.93;71.23
72855;BME280;60991;51.278;22.550;2023-12-22T06:20:33;95831.91;;;3.86;71.56
72855;BME280;60991;51.278;22.550;2023-12-22T06:22:03;95827.00;;;3.79;71.96
72855;BME280;60991;51.278;22.550;2023-12-22T06:23:33;95836.22;;;3.77;71.75
72855;BME280;60991;51.278;22.550;2023-12-22T06:25:04;95837.56;;;3.74;72.25
72855;BME280;60991;51.278;22.550;2023-12-22T06:26:34;95844.34;;;3.75;72.20
72855;BME280;60991;51.278;22.550;2023-12-22T06:28:05;95840.25;;;3.69;72.40
72855;BME280;60991;51.278;22.550;2023-12-22T06:29:35;95847.38;;;3.64;72.11
72855;BME280;60991;51.278;22.550;2023-12-22T06:31:06;95855.25;;;3.64;72.01
72855;BME280;60991;51.278;22.550;2023-12-22T06:32:36;95865.97;;;3.67;72.44
72855;BME280;60991;51.278;22.550;2023-12-22T06:34:06;95866.81;;;3.63;72.70
72855;BME280;60991;51.278;22.550;2023-12-22T06:35:37;95853.25;;;3.56;72.28
72855;BME280;60991;51.278;22.550;2023-12-22T06:37:07;95855.53;;;3.62;72.23
72855;BME280;60991;51.278;22.550;2023-12-22T06:38:37;95857.38;;;3.62;72.47
72855;BME280;60991;51.278;22.550;2023-12-22T06:40:07;95859.34;;;3.51;72.72
72855;BME280;60991;51.278;22.550;2023-12-22T06:41:38;95877.97;;;3.50;72.80
72855;BME280;60991;51.278;22.550;2023-12-22T06:43:08;95871.31;;;3.57;72.68
72855;BME280;60991;51.278;22.550;2023-12-22T06:44:41;95864.50;;;3.56;72.99
72855;BME280;60991;51.278;22.550;2023-12-22T06:46:18;95874.00;;;3.52;72.72
72855;BME280;60991;51.278;22.550;2023-12-22T06:47:48;95874.56;;;3.49;72.83
72855;BME280;60991;51.278;22.550;2023-12-22T06:49:19;95877.69;;;3.51;72.98
72855;BME280;60991;51.278;22.550;2023-12-22T06:50:49;95868.75;;;3.52;73.42
72855;BME280;60991;51.278;22.550;2023-12-22T06:52:19;95854.03;;;3.56;73.38
72855;BME280;60991;51.278;22.550;2023-12-22T06:53:50;95866.34;;;3.56;73.18
72855;BME280;60991;51.278;22.550;2023-12-22T06:55:20;95868.75;;;3.52;73.10
72855;BME280;60991;51.278;22.550;2023-12-22T06:56:51;95870.88;;;3.50;72.80
72855;BME280;60991;51.278;22.550;2023-12-22T06:58:21;95866.16;;;3.52;73.05
72855;BME280;60991;51.278;22.550;2023-12-22T06:59:51;95870.53;;;3.57;72.79
72855;BME280;60991;51.278;22.550;2023-12-22T07:01:31;95869.03;;;3.51;72.96
72855;BME280;60991;51.278;22.550;2023-12-22T07:03:02;95873.78;;;3.48;73.31
72855;BME280;60991;51.278;22.550;2023-12-22T07:04:32;95876.41;;;3.48;72.51
72855;BME280;60991;51.278;22.550;2023-12-22T07:06:03;95871.66;;;3.51;72.36
72855;BME280;60991;51.278;22.550;2023-12-22T07:07:33;95878.75;;;3.50;72.78
72855;BME280;60991;51.278;22.550;2023-12-22T07:10:46;95892.25;;;3.62;72.24
72855;BME280;60991;51.278;22.550;2023-12-22T07:12:16;95883.56;;;3.67;72.57
72855;BME280;60991;51.278;22.550;2023-12-22T07:13:46;95889.59;;;3.67;71.65
72855;BME280;60991;51.278;22.550;2023-12-22T07:15:16;95884.88;;;3.64;71.79
72855;BME280;60991;51.278;22.550;2023-12-22T07:16:46;95881.44;;;3.69;71.53
72855;BME280;60991;51.278;22.550;2023-12-22T07:18:17;95896.59;;;3.72;71.26
72855;BME280;60991;51.278;22.550;2023-12-22T07:19:47;95897.69;;;3.71;71.32
72855;BME280;60991;51.278;22.550;2023-12-22T07:21:17;95891.84;;;3.74;70.77
72855;BME280;60991;51.278;22.550;2023-12-22T07:22:47;95896.59;;;3.72;70.99
72855;BME280;60991;51.278;22.550;2023-12-22T07:24:17;95898.94;;;3.73;71.11
72855;BME280;60991;51.278;22.550;2023-12-22T07:25:48;95896.31;;;3.73;70.75
72855;BME280;60991;51.278;22.550;2023-12-22T07:27:18;95888.44;;;3.73;70.25
72855;BME280;60991;51.278;22.550;2023-12-22T07:28:48;95896.13;;;3.70;70.04
72855;BME280;60991;51.278;22.550;2023-12-22T07:30:18;95887.94;;;3.71;70.22
72855;BME280;60991;51.278;22.550;2023-12-22T07:31:49;95889.50;;;3.72;69.95
72855;BME280;60991;51.278;22.550;2023-12-22T07:33:19;95893.50;;;3.70;69.81
72855;BME280;60991;51.278;22.550;2023-12-22T07:34:49;95897.97;;;3.69;70.07
72855;BME280;60991;51.278;22.550;2023-12-22T07:36:19;95898.44;;;3.71;70.25
72855;BME280;60991;51.278;22.550;2023-12-22T07:37:49;95899.72;;;3.74;69.79
72855;BME280;60991;51.278;22.550;2023-12-22T07:39:20;95887.94;;;3.71;69.88
72855;BME280;60991;51.278;22.550;2023-12-22T07:40:50;95898.75;;;3.70;69.68
72855;BME280;60991;51.278;22.550;2023-12-22T07:42:20;95898.44;;;3.71;69.76
72855;BME280;60991;51.278;22.550;2023-12-22T07:43:50;95901.56;;;3.73;70.04
72855;BME280;60991;51.278;22.550;2023-12-22T07:45:20;95899.16;;;3.77;68.92
72855;BME280;60991;51.278;22.550;2023-12-22T07:47:00;95903.41;;;3.73;69.34
72855;BME280;60991;51.278;22.550;2023-12-22T07:48:30;95898.16;;;3.73;69.54
72855;BME280;60991;51.278;22.550;2023-12-22T07:50:00;95909.94;;;3.75;69.24
72855;BME280;60991;51.278;22.550;2023-12-22T07:51:31;95900.97;;;3.81;68.27
72855;BME280;60991;51.278;22.550;2023-12-22T07:53:01;95908.31;;;3.79;68.52
72855;BME280;60991;51.278;22.550;2023-12-22T07:54:31;95904.41;;;3.77;68.09
72855;BME280;60991;51.278;22.550;2023-12-22T07:56:02;95908.31;;;3.79;68.22
72855;BME280;60991;51.278;22.550;2023-12-22T07:57:33;95914.63;;;3.78;68.20
72855;BME280;60991;51.278;22.550;2023-12-22T07:59:03;95914.03;;;3.87;68.39
72855;BME280;60991;51.278;22.550;2023-12-22T08:00:33;95912.69;;;3.89;67.32
72855;BME280;60991;51.278;22.550;2023-12-22T08:02:04;95909.06;;;3.85;67.29